createdAt,value
2022-11-15T00:00:24.489Z,7.6
2022-11-15T00:01:24.512Z,7.6
2022-11-15T00:02:24.566Z,7.7
2022-11-15T00:03:24.484Z,7.7
2022-11-15T00:04:24.480Z,7.7
2022-11-15T00:05:24.465Z,7.7
2022-11-15T00:06:24.480Z,7.7
2022-11-15T00:07:53.616Z,7.7
2022-11-15T00:08:24.473Z,7.8
2022-11-15T00:09:24.470Z,7.8
2022-11-15T00:10:24.530Z,7.8
2022-11-15T00:11:24.498Z,7.8
2022-11-15T00:12:24.482Z,7.8
2022-11-15T00:13:24.502Z,7.8
2022-11-15T00:14:24.497Z,7.8
2022-11-15T00:15:24.469Z,7.8
2022-11-15T00:16:24.543Z,7.8
2022-11-15T00:17:24.477Z,7.8
2022-11-15T00:18:24.493Z,7.8
2022-11-15T00:19:24.496Z,7.8
2022-11-15T00:20:24.489Z,7.8
2022-11-15T00:21:24.490Z,7.9
2022-11-15T00:22:24.487Z,7.9
2022-11-15T00:23:24.506Z,7.8
2022-11-15T00:24:24.548Z,7.9
2022-11-15T00:25:24.552Z,7.8
2022-11-15T00:26:24.492Z,7.9
2022-11-15T00:27:24.486Z,7.8
2022-11-15T00:28:24.492Z,7.9
2022-11-15T00:29:24.465Z,7.9
2022-11-15T00:30:24.478Z,7.9
2022-11-15T00:31:24.500Z,7.9
2022-11-15T00:32:24.480Z,7.9
2022-11-15T00:33:24.477Z,7.8
2022-11-15T00:34:24.469Z,7.9
2022-11-15T00:35:24.483Z,7.9
2022-11-15T00:36:24.563Z,7.9
2022-11-15T00:37:24.468Z,7.9
2022-11-15T00:38:24.475Z,7.9
2022-11-15T00:39:24.492Z,7.9
2022-11-15T00:40:24.484Z,7.9
2022-11-15T00:41:24.526Z,7.9
2022-11-15T00:42:24.494Z,7.9
2022-11-15T00:43:24.496Z,7.9
2022-11-15T00:44:24.482Z,8
2022-11-15T00:45:24.564Z,7.9
2022-11-15T00:46:24.504Z,8
2022-11-15T00:47:24.470Z,8
2022-11-15T00:48:24.477Z,8
2022-11-15T00:49:24.490Z,7.9
2022-11-15T00:50:24.497Z,7.9
2022-11-15T00:51:24.501Z,7.9
2022-11-15T00:52:24.505Z,7.9
2022-11-15T00:53:24.489Z,7.9
2022-11-15T00:54:24.494Z,7.9
2022-11-15T00:55:24.487Z,7.9
2022-11-15T00:56:24.491Z,7.9
2022-11-15T00:57:24.482Z,7.9
2022-11-15T00:58:24.482Z,7.9
2022-11-15T00:59:24.496Z,7.9
2022-11-15T01:00:24.480Z,7.9
2022-11-15T01:01:24.549Z,7.9
2022-11-15T01:02:24.504Z,7.9
2022-11-15T01:03:24.513Z,7.9
2022-11-15T01:04:24.473Z,7.9
2022-11-15T01:05:24.488Z,7.9
2022-11-15T01:06:24.498Z,7.9
2022-11-15T01:07:24.638Z,7.9
2022-11-15T01:08:24.497Z,7.9
2022-11-15T01:09:24.470Z,7.9
2022-11-15T01:10:24.484Z,7.9
2022-11-15T01:11:24.496Z,7.9
2022-11-15T01:12:24.510Z,7.9
2022-11-15T01:13:24.482Z,7.9
2022-11-15T01:14:25.716Z,7.9
2022-11-15T01:15:24.494Z,7.9
2022-11-15T01:17:24.477Z,7.9
2022-11-15T01:18:24.494Z,8
2022-11-15T01:19:24.491Z,8
2022-11-15T01:20:24.480Z,8
2022-11-15T01:21:24.498Z,8
2022-11-15T01:22:24.501Z,8
2022-11-15T01:23:24.482Z,8
2022-11-15T01:24:24.500Z,8
2022-11-15T01:25:24.494Z,8
2022-11-15T01:26:24.511Z,8
2022-11-15T01:27:24.481Z,8
2022-11-15T01:28:24.482Z,8.1
2022-11-15T01:29:24.484Z,8
2022-11-15T01:30:24.483Z,8.1
2022-11-15T01:31:24.515Z,8.1
2022-11-15T01:32:24.485Z,8.1
2022-11-15T01:33:24.479Z,8
2022-11-15T01:34:24.491Z,8
2022-11-15T01:35:24.474Z,8
2022-11-15T01:36:24.520Z,8
2022-11-15T01:37:24.497Z,8
2022-11-15T01:38:24.479Z,8
2022-11-15T01:39:24.480Z,8
2022-11-15T01:40:24.489Z,8.1
2022-11-15T01:41:24.505Z,8
2022-11-15T01:42:24.486Z,8.1
2022-11-15T01:43:24.516Z,8
2022-11-15T01:44:24.483Z,8
2022-11-15T01:46:24.504Z,8
2022-11-15T01:47:24.502Z,8.1
2022-11-15T01:48:24.498Z,8.1
2022-11-15T01:49:24.538Z,8.1
2022-11-15T01:50:24.484Z,8.1
2022-11-15T01:52:24.498Z,8.1
2022-11-15T01:53:34.964Z,8.1
2022-11-15T01:54:34.762Z,8.1
2022-11-15T01:55:34.790Z,8.1
2022-11-15T01:56:24.498Z,8
2022-11-15T01:57:24.490Z,8.1
2022-11-15T01:58:24.483Z,8.1
2022-11-15T01:59:24.492Z,8.2
2022-11-15T02:00:24.488Z,8.2
2022-11-15T02:01:24.532Z,8.1
2022-11-15T02:02:24.489Z,8.1
2022-11-15T02:03:24.490Z,8.1
2022-11-15T02:04:24.531Z,8.2
2022-11-15T02:05:24.492Z,8.2
2022-11-15T02:06:24.501Z,8.1
2022-11-15T02:07:24.645Z,8.2
2022-11-15T02:08:24.492Z,8.1
2022-11-15T02:09:24.488Z,8.2
2022-11-15T02:10:24.492Z,8.2
2022-11-15T02:11:24.510Z,8.2
2022-11-15T02:12:24.490Z,8.2
2022-11-15T02:13:24.484Z,8.2
2022-11-15T02:14:24.521Z,8.2
2022-11-15T02:15:24.514Z,8.2
2022-11-15T02:16:24.515Z,8.2
2022-11-15T02:17:24.490Z,8.2
2022-11-15T02:18:24.499Z,8.2
2022-11-15T02:19:24.497Z,8.2
2022-11-15T02:20:24.503Z,8.2
2022-11-15T02:21:24.506Z,8.2
2022-11-15T02:22:24.493Z,8.2
2022-11-15T02:23:24.495Z,8.2
2022-11-15T02:24:24.497Z,8.3
2022-11-15T02:25:24.499Z,8.3
2022-11-15T02:26:24.499Z,8.2
2022-11-15T02:27:24.486Z,8.3
2022-11-15T02:28:24.492Z,8.3
2022-11-15T02:29:24.532Z,8.3
2022-11-15T02:30:24.493Z,8.2
2022-11-15T02:31:24.511Z,8.3
2022-11-15T02:32:24.494Z,8.2
2022-11-15T02:33:24.515Z,8.2
2022-11-15T02:34:24.484Z,8.3
2022-11-15T02:35:24.496Z,8.3
2022-11-15T02:36:24.528Z,8.3
2022-11-15T02:37:24.497Z,8.3
2022-11-15T02:38:24.485Z,8.3
2022-11-15T02:39:24.503Z,8.3
2022-11-15T02:40:24.493Z,8.3
2022-11-15T02:41:24.543Z,8.3
2022-11-15T02:42:24.490Z,8.3
2022-11-15T02:43:24.487Z,8.2
2022-11-15T02:44:24.482Z,8.3
2022-11-15T02:45:24.516Z,8.3
2022-11-15T02:46:24.582Z,8.3
2022-11-15T02:47:24.535Z,8.3
2022-11-15T02:48:24.484Z,8.3
2022-11-15T02:49:24.487Z,8.3
2022-11-15T02:50:24.491Z,8.3
2022-11-15T02:51:24.771Z,8.3
2022-11-15T02:52:24.487Z,8.3
2022-11-15T02:53:24.493Z,8.2
2022-11-15T02:54:24.498Z,8.2
2022-11-15T02:55:24.529Z,8.2
2022-11-15T02:56:24.519Z,8.2
2022-11-15T02:57:24.498Z,8.2
2022-11-15T02:58:24.535Z,8.2
2022-11-15T02:59:24.487Z,8.3
2022-11-15T03:00:24.496Z,8.3
2022-11-15T03:01:24.575Z,8.3
2022-11-15T03:02:24.498Z,8.2
2022-11-15T03:03:24.489Z,8.2
2022-11-15T03:04:24.497Z,8.3
2022-11-15T03:05:24.495Z,8.2
2022-11-15T03:06:24.499Z,8.2
2022-11-15T03:07:24.578Z,8.2
2022-11-15T03:08:24.528Z,8.2
2022-11-15T03:09:24.497Z,8.2
2022-11-15T03:10:24.483Z,8.2
2022-11-15T03:11:24.514Z,8.2
2022-11-15T03:12:24.501Z,8.2
2022-11-15T03:13:24.506Z,8.2
2022-11-15T03:14:24.489Z,8.2
2022-11-15T03:15:24.493Z,8.2
2022-11-15T03:16:25.206Z,8.2
2022-11-15T03:17:24.496Z,8.2
2022-11-15T03:18:24.488Z,8.2
2022-11-15T03:19:24.487Z,8.2
2022-11-15T03:20:24.496Z,8.2
2022-11-15T03:21:24.535Z,8.2
2022-11-15T03:22:24.511Z,8.2
2022-11-15T03:23:24.500Z,8.2
2022-11-15T03:24:26.113Z,8.2
2022-11-15T03:25:24.498Z,8.2
2022-11-15T03:26:24.499Z,8.2
2022-11-15T03:27:24.507Z,8.2
2022-11-15T03:28:24.500Z,8.2
2022-11-15T03:29:24.499Z,8.2
2022-11-15T03:30:24.496Z,8.2
2022-11-15T03:31:24.513Z,8.3
2022-11-15T03:32:24.498Z,8.3
2022-11-15T03:33:24.495Z,8.2
2022-11-15T03:34:24.516Z,8.3
2022-11-15T03:35:24.566Z,8.2
2022-11-15T03:36:24.522Z,8.3
2022-11-15T03:37:24.516Z,8.2
2022-11-15T03:38:24.528Z,8.3
2022-11-15T03:39:24.500Z,8.3
2022-11-15T03:40:24.491Z,8.3
2022-11-15T03:41:24.517Z,8.2
2022-11-15T03:42:24.499Z,8.2
2022-11-15T03:43:24.495Z,8.2
2022-11-15T03:44:24.502Z,8.2
2022-11-15T03:45:24.503Z,8.3
2022-11-15T03:46:24.506Z,8.2
2022-11-15T03:47:24.533Z,8.2
2022-11-15T03:48:24.506Z,8.2
2022-11-15T03:49:24.522Z,8.3
2022-11-15T03:50:24.500Z,8.3
2022-11-15T03:51:24.544Z,8.3
2022-11-15T03:52:24.523Z,8.2
2022-11-15T03:53:24.513Z,8.2
2022-11-15T03:54:24.514Z,8.3
2022-11-15T03:55:24.503Z,8.3
2022-11-15T03:56:24.550Z,8.2
2022-11-15T03:57:24.514Z,8.3
2022-11-15T03:58:24.510Z,8.3
2022-11-15T03:59:24.490Z,8.3
2022-11-15T04:00:24.523Z,8.3
2022-11-15T04:01:24.574Z,8.3
2022-11-15T04:02:24.506Z,8.3
2022-11-15T04:03:24.495Z,8.3
2022-11-15T04:04:24.519Z,8.3
2022-11-15T04:05:24.491Z,8.2
2022-11-15T04:06:24.519Z,8.3
2022-11-15T04:07:24.615Z,8.3
2022-11-15T04:08:24.533Z,8.3
2022-11-15T04:09:24.511Z,8.2
2022-11-15T04:10:24.496Z,8.3
2022-11-15T04:11:24.522Z,8.3
2022-11-15T04:12:24.514Z,8.2
2022-11-15T04:14:24.512Z,8.2
2022-11-15T04:15:24.551Z,8.2
2022-11-15T04:16:31.186Z,8.2
2022-11-15T04:18:24.550Z,8.2
2022-11-15T04:19:24.517Z,8.3
2022-11-15T04:20:24.507Z,8.3
2022-11-15T04:21:24.524Z,8.3
2022-11-15T04:22:24.531Z,8.3
2022-11-15T04:23:24.531Z,8.3
2022-11-15T04:24:24.500Z,8.2
2022-11-15T04:25:27.290Z,8.2
2022-11-15T04:26:24.566Z,8.2
2022-11-15T04:27:24.505Z,8.3
2022-11-15T04:28:24.495Z,8.3
2022-11-15T04:29:24.506Z,8.2
2022-11-15T04:30:24.520Z,8.2
2022-11-15T04:31:24.544Z,8.3
2022-11-15T04:32:24.512Z,8.2
2022-11-15T04:33:24.491Z,8.2
2022-11-15T04:34:24.511Z,8.2
2022-11-15T04:35:24.512Z,8.2
2022-11-15T04:36:24.570Z,8.3
2022-11-15T04:37:24.508Z,8.2
2022-11-15T04:38:24.518Z,8.2
2022-11-15T04:39:24.512Z,8.2
2022-11-15T04:40:24.571Z,8.3
2022-11-15T04:41:24.526Z,8.3
2022-11-15T04:42:24.522Z,8.2
2022-11-15T04:43:24.510Z,8.3
2022-11-15T04:44:24.515Z,8.3
2022-11-15T04:45:24.509Z,8.3
2022-11-15T04:46:24.533Z,8.2
2022-11-15T04:47:24.513Z,8.3
2022-11-15T04:48:24.513Z,8.2
2022-11-15T04:49:24.534Z,8.2
2022-11-15T04:50:24.517Z,8.2
2022-11-15T04:51:24.527Z,8.2
2022-11-15T04:52:24.566Z,8.2
2022-11-15T04:53:24.505Z,8.2
2022-11-15T04:54:24.512Z,8.2
2022-11-15T04:55:24.510Z,8.3
2022-11-15T04:56:24.513Z,8.2
2022-11-15T04:57:24.509Z,8.2
2022-11-15T04:58:24.500Z,8.2
2022-11-15T04:59:24.515Z,8.3
2022-11-15T05:00:24.527Z,8.2
2022-11-15T05:01:24.642Z,8.2
2022-11-15T05:02:24.517Z,8.2
2022-11-15T05:03:24.509Z,8.2
2022-11-15T05:04:24.500Z,8.2
2022-11-15T05:05:24.563Z,8.2
2022-11-15T05:06:24.528Z,8.2
2022-11-15T05:07:24.532Z,8.2
2022-11-15T05:08:24.521Z,8.2
2022-11-15T05:09:24.521Z,8.2
2022-11-15T05:10:24.515Z,8.2
2022-11-15T05:11:24.561Z,8.3
2022-11-15T05:12:24.507Z,8.3
2022-11-15T05:14:24.525Z,8.3
2022-11-15T05:15:24.510Z,8.3
2022-11-15T05:16:18.641Z,8.3
2022-11-15T05:17:24.513Z,8.2
2022-11-15T05:18:24.513Z,8.3
2022-11-15T05:19:24.509Z,8.3
2022-11-15T05:20:24.526Z,8.3
2022-11-15T05:21:24.523Z,8.3
2022-11-15T05:22:24.512Z,8.3
2022-11-15T05:23:24.574Z,8.3
2022-11-15T05:24:24.597Z,8.3
2022-11-15T05:25:24.525Z,8.3
2022-11-15T05:26:24.519Z,8.3
2022-11-15T05:27:24.505Z,8.3
2022-11-15T05:28:24.532Z,8.3
2022-11-15T05:29:24.502Z,8.3
2022-11-15T05:30:24.515Z,8.3
2022-11-15T05:31:24.512Z,8.3
2022-11-15T05:32:24.510Z,8.3
2022-11-15T05:33:24.513Z,8.2
2022-11-15T05:34:24.505Z,8.3
2022-11-15T05:35:24.513Z,8.3
2022-11-15T05:36:24.517Z,8.3
2022-11-15T05:37:24.515Z,8.3
2022-11-15T05:38:24.563Z,8.2
2022-11-15T05:39:24.510Z,8.2
2022-11-15T05:40:24.521Z,8.3
2022-11-15T05:41:24.515Z,8.2
2022-11-15T05:42:24.524Z,8.2
2022-11-15T05:43:24.515Z,8.2
2022-11-15T05:44:24.518Z,8.2
2022-11-15T05:45:27.763Z,8.2
2022-11-15T05:46:24.542Z,8.2
2022-11-15T05:47:24.521Z,8.2
2022-11-15T05:48:24.552Z,8.2
2022-11-15T05:49:24.509Z,8.1
2022-11-15T05:50:24.521Z,8.2
2022-11-15T05:51:24.536Z,8.2
2022-11-15T05:52:24.530Z,8.1
2022-11-15T05:53:24.521Z,8.1
2022-11-15T05:54:24.517Z,8.2
2022-11-15T05:55:24.509Z,8.2
2022-11-15T05:56:24.518Z,8.2
2022-11-15T05:57:24.521Z,8.2
2022-11-15T05:58:24.526Z,8.2
2022-11-15T05:59:24.501Z,8.1
2022-11-15T06:00:24.501Z,8.2
2022-11-15T06:01:24.528Z,8.1
2022-11-15T06:02:24.600Z,8.2
2022-11-15T06:03:24.513Z,8.1
2022-11-15T06:04:24.534Z,8.1
2022-11-15T06:05:24.510Z,8.1
2022-11-15T06:06:24.527Z,8.1
2022-11-15T06:07:24.580Z,8.1
2022-11-15T06:08:24.519Z,8.1
2022-11-15T06:09:24.516Z,8.1
2022-11-15T06:10:24.515Z,8.1
2022-11-15T06:11:24.595Z,8.1
2022-11-15T06:12:24.516Z,8.1
2022-11-15T06:13:24.521Z,8.1
2022-11-15T06:14:24.527Z,8.1
2022-11-15T06:15:24.513Z,8
2022-11-15T06:16:24.547Z,8
2022-11-15T06:17:24.516Z,8
2022-11-15T06:18:24.517Z,8
2022-11-15T06:19:24.549Z,8.1
2022-11-15T06:20:24.511Z,8.1
2022-11-15T06:21:24.530Z,8.1
2022-11-15T06:22:24.529Z,8.1
2022-11-15T06:23:26.237Z,8.1
2022-11-15T06:24:24.545Z,8.1
2022-11-15T06:25:24.514Z,8.1
2022-11-15T06:26:24.524Z,8
2022-11-15T06:27:24.530Z,8
2022-11-15T06:28:24.618Z,8
2022-11-15T06:29:24.516Z,8
2022-11-15T06:30:24.524Z,8
2022-11-15T06:31:24.527Z,8
2022-11-15T06:32:24.529Z,8
2022-11-15T06:33:24.552Z,8.1
2022-11-15T06:34:24.544Z,8
2022-11-15T06:35:24.533Z,8
2022-11-15T06:36:24.536Z,8
2022-11-15T06:37:24.515Z,8
2022-11-15T06:38:24.597Z,8
2022-11-15T06:39:24.518Z,8
2022-11-15T06:40:24.522Z,8
2022-11-15T06:41:24.517Z,8
2022-11-15T06:42:24.543Z,8
2022-11-15T06:43:24.510Z,7.9
2022-11-15T06:44:24.526Z,7.9
2022-11-15T06:45:24.534Z,7.9
2022-11-15T06:46:24.544Z,7.9
2022-11-15T06:47:24.520Z,7.9
2022-11-15T06:48:24.520Z,7.9
2022-11-15T06:49:24.518Z,7.9
2022-11-15T06:50:24.521Z,7.9
2022-11-15T06:51:24.535Z,7.9
2022-11-15T06:52:24.512Z,7.9
2022-11-15T06:53:24.537Z,7.9
2022-11-15T06:54:24.527Z,7.8
2022-11-15T06:55:24.527Z,7.9
2022-11-15T06:56:24.525Z,7.9
2022-11-15T06:57:24.506Z,7.8
2022-11-15T06:58:24.520Z,7.8
2022-11-15T06:59:24.515Z,7.8
2022-11-15T07:00:24.514Z,7.8
2022-11-15T07:01:24.664Z,7.8
2022-11-15T07:02:24.506Z,7.8
2022-11-15T07:03:24.525Z,7.8
2022-11-15T07:04:24.529Z,7.8
2022-11-15T07:05:24.532Z,7.8
2022-11-15T07:06:24.529Z,7.8
2022-11-15T07:07:24.621Z,7.8
2022-11-15T07:08:24.626Z,7.8
2022-11-15T07:09:24.525Z,7.8
2022-11-15T07:10:24.523Z,7.8
2022-11-15T07:11:24.548Z,7.8
2022-11-15T07:12:24.520Z,7.8
2022-11-15T07:13:24.512Z,7.8
2022-11-15T07:14:24.519Z,7.8
2022-11-15T07:15:24.518Z,7.8
2022-11-15T07:16:24.518Z,7.8
2022-11-15T07:17:24.542Z,7.8
2022-11-15T07:18:24.520Z,7.8
2022-11-15T07:19:24.532Z,7.7
2022-11-15T07:20:24.641Z,7.7
2022-11-15T07:21:27.557Z,7.7
2022-11-15T07:22:24.533Z,7.7
2022-11-15T07:23:24.582Z,7.8
2022-11-15T07:24:24.545Z,7.7
2022-11-15T07:25:24.526Z,7.7
2022-11-15T07:26:24.558Z,7.7
2022-11-15T07:27:24.531Z,7.7
2022-11-15T07:28:24.520Z,7.7
2022-11-15T07:29:24.523Z,7.7
2022-11-15T07:30:24.596Z,7.8
2022-11-15T07:31:24.517Z,7.7
2022-11-15T07:32:24.513Z,7.7
2022-11-15T07:34:24.531Z,7.7
2022-11-15T07:35:24.507Z,7.7
2022-11-15T07:36:24.540Z,7.7
2022-11-15T07:37:24.516Z,7.7
2022-11-15T07:38:24.517Z,7.7
2022-11-15T07:39:24.537Z,7.7
2022-11-15T07:40:24.524Z,7.6
2022-11-15T07:41:24.523Z,7.7
2022-11-15T07:42:24.524Z,7.6
2022-11-15T07:43:24.531Z,7.7
2022-11-15T07:44:24.526Z,7.6
2022-11-15T07:45:24.526Z,7.7
2022-11-15T07:46:24.515Z,7.7
2022-11-15T07:47:24.524Z,7.7
2022-11-15T07:48:24.520Z,7.7
2022-11-15T07:49:24.528Z,7.7
2022-11-15T07:50:24.525Z,7.7
2022-11-15T07:51:24.529Z,7.7
2022-11-15T07:52:24.519Z,7.7
2022-11-15T07:53:24.523Z,7.7
2022-11-15T07:54:24.527Z,7.7
2022-11-15T07:55:24.550Z,7.7
2022-11-15T07:56:24.526Z,7.7
2022-11-15T07:57:24.528Z,7.7
2022-11-15T07:58:24.520Z,7.8
2022-11-15T07:59:24.520Z,7.8
2022-11-15T08:00:24.525Z,7.7
2022-11-15T08:01:24.694Z,7.7
2022-11-15T08:02:29.034Z,7.8
2022-11-15T08:03:24.526Z,7.7
2022-11-15T08:04:24.527Z,7.7
2022-11-15T08:05:24.530Z,7.8
2022-11-15T08:06:24.557Z,7.8
2022-11-15T08:07:24.628Z,7.8
2022-11-15T08:08:24.517Z,7.8
2022-11-15T08:09:24.529Z,7.7
2022-11-15T08:10:24.533Z,7.8
2022-11-15T08:11:24.528Z,7.8
2022-11-15T08:12:24.571Z,7.8
2022-11-15T08:13:24.532Z,7.8
2022-11-15T08:14:24.528Z,7.8
2022-11-15T08:15:24.527Z,7.8
2022-11-15T08:16:24.579Z,7.8
2022-11-15T08:17:24.532Z,7.8
2022-11-15T08:18:24.535Z,7.8
2022-11-15T08:19:24.543Z,7.8
2022-11-15T08:20:24.536Z,7.8
2022-11-15T08:21:24.536Z,7.8
2022-11-15T08:22:24.539Z,7.8
2022-11-15T08:23:24.547Z,7.8
2022-11-15T08:24:24.518Z,7.8
2022-11-15T08:25:24.526Z,7.8
2022-11-15T08:26:24.569Z,7.8
2022-11-15T08:27:24.557Z,7.8
2022-11-15T08:28:24.534Z,7.8
2022-11-15T08:29:24.531Z,7.8
2022-11-15T08:30:24.549Z,7.8
2022-11-15T08:31:24.538Z,7.8
2022-11-15T08:32:24.523Z,7.8
2022-11-15T08:33:24.526Z,7.8
2022-11-15T08:34:24.537Z,7.8
2022-11-15T08:35:28.792Z,7.8
2022-11-15T08:36:24.528Z,7.8
2022-11-15T08:37:24.529Z,7.8
2022-11-15T08:38:24.535Z,7.8
2022-11-15T08:39:24.524Z,7.8
2022-11-15T08:40:24.585Z,7.8
2022-11-15T08:41:24.584Z,7.8
2022-11-15T08:42:24.540Z,7.8
2022-11-15T08:43:24.530Z,7.8
2022-11-15T08:44:24.553Z,7.8
2022-11-15T08:45:24.553Z,7.8
2022-11-15T08:46:24.535Z,7.8
2022-11-15T08:47:24.517Z,7.8
2022-11-15T08:48:24.522Z,7.8
2022-11-15T08:49:24.541Z,7.8
2022-11-15T08:50:24.618Z,7.8
2022-11-15T08:51:24.527Z,7.8
2022-11-15T08:52:24.530Z,7.8
2022-11-15T08:53:24.529Z,7.8
2022-11-15T08:54:24.515Z,7.8
2022-11-15T08:55:25.079Z,7.8
2022-11-15T08:56:24.565Z,7.8
2022-11-15T08:57:24.626Z,7.8
2022-11-15T08:58:24.520Z,7.8
2022-11-15T08:59:24.534Z,7.7
2022-11-15T09:00:24.610Z,7.8
2022-11-15T09:01:24.630Z,7.7
2022-11-15T09:02:24.524Z,7.8
2022-11-15T09:03:24.526Z,7.8
2022-11-15T09:04:24.539Z,7.8
2022-11-15T09:05:24.527Z,7.8
2022-11-15T09:06:24.536Z,7.8
2022-11-15T09:07:24.584Z,7.8
2022-11-15T09:08:46.584Z,7.8
2022-11-15T09:09:24.513Z,7.8
2022-11-15T09:10:24.528Z,7.8
2022-11-15T09:11:24.546Z,7.8
2022-11-15T09:12:24.535Z,7.8
2022-11-15T09:13:24.547Z,7.8
2022-11-15T09:14:24.529Z,7.8
2022-11-15T09:15:24.538Z,7.8
2022-11-15T09:16:24.582Z,7.8
2022-11-15T09:17:25.266Z,7.8
2022-11-15T09:18:24.539Z,7.8
2022-11-15T09:19:24.544Z,7.8
2022-11-15T09:20:24.535Z,7.8
2022-11-15T09:21:24.550Z,7.9
2022-11-15T09:22:24.548Z,7.8
2022-11-15T09:23:24.533Z,7.7
2022-11-15T09:24:24.548Z,7.8
2022-11-15T09:25:24.539Z,7.8
2022-11-15T09:26:24.560Z,7.8
2022-11-15T09:27:24.545Z,7.9
2022-11-15T09:28:24.553Z,7.8
2022-11-15T09:29:24.557Z,7.8
2022-11-15T09:30:24.530Z,7.8
2022-11-15T09:31:24.543Z,7.9
2022-11-15T09:32:24.592Z,7.8
2022-11-15T09:33:24.522Z,7.8
2022-11-15T09:34:24.552Z,7.9
2022-11-15T09:35:24.534Z,7.7
2022-11-15T09:36:24.545Z,7.6
2022-11-15T09:37:25.500Z,7.7
2022-11-15T09:38:24.533Z,7.7
2022-11-15T09:39:24.539Z,7.8
2022-11-15T09:40:24.607Z,7.7
2022-11-15T09:41:24.552Z,7.8
2022-11-15T09:42:24.545Z,7.8
2022-11-15T09:43:24.532Z,7.8
2022-11-15T09:44:25.738Z,7.7
2022-11-15T09:45:24.616Z,7.7
2022-11-15T09:46:24.560Z,7.7
2022-11-15T09:47:24.546Z,7.6
2022-11-15T09:48:24.547Z,7.6
2022-11-15T09:49:24.538Z,7.5
2022-11-15T09:50:24.533Z,7.7
2022-11-15T09:51:24.552Z,7.7
2022-11-15T09:52:24.544Z,7.6
2022-11-15T09:53:50.701Z,7.5
2022-11-15T09:54:51.761Z,7.5
2022-11-15T09:55:24.545Z,7.5
2022-11-15T09:56:24.538Z,7.5
2022-11-15T09:57:24.533Z,7.5
2022-11-15T09:58:24.538Z,7.5
2022-11-15T09:59:24.561Z,7.6
2022-11-15T10:00:45.345Z,7.6
2022-11-15T10:01:24.594Z,7.5
2022-11-15T10:02:24.535Z,7.3
2022-11-15T10:03:24.543Z,7.3
2022-11-15T10:04:24.553Z,7.3
2022-11-15T10:05:24.550Z,7.2
2022-11-15T10:06:24.553Z,7.3
2022-11-15T10:07:24.659Z,7.3
2022-11-15T10:08:24.571Z,7.4
2022-11-15T10:09:24.544Z,7.3
2022-11-15T10:10:24.552Z,7.4
2022-11-15T10:11:40.187Z,7.4
2022-11-15T10:12:24.549Z,7.4
2022-11-15T10:13:24.561Z,7.4
2022-11-15T10:14:24.551Z,7.4
2022-11-15T10:15:24.543Z,7.4
2022-11-15T10:16:24.548Z,7.4
2022-11-15T10:17:24.585Z,7.4
2022-11-15T10:18:24.537Z,7.3
2022-11-15T10:19:24.547Z,7.4
2022-11-15T10:20:24.553Z,7.4
2022-11-15T10:21:24.627Z,7.4
2022-11-15T10:22:24.591Z,7.5
2022-11-15T10:23:24.542Z,7.5
2022-11-15T10:24:24.552Z,7.5
2022-11-15T10:25:24.550Z,7.4
2022-11-15T10:26:24.571Z,7.4
2022-11-15T10:27:24.664Z,7.4
2022-11-15T10:28:24.537Z,7.4
2022-11-15T10:29:26.991Z,7.3
2022-11-15T10:30:24.571Z,7.3
2022-11-15T10:31:24.576Z,7.4
2022-11-15T10:32:24.531Z,7.4
2022-11-15T10:33:24.555Z,7.3
2022-11-15T10:34:24.565Z,7.3
2022-11-15T10:35:24.549Z,7.3
2022-11-15T10:36:24.566Z,7.3
2022-11-15T10:38:24.535Z,7.1
2022-11-15T10:39:24.540Z,7.2
2022-11-15T10:40:24.754Z,7.2
2022-11-15T10:41:24.573Z,7.2
2022-11-15T10:42:24.565Z,7.2
2022-11-15T10:43:24.557Z,7
2022-11-15T10:44:24.541Z,7
2022-11-15T10:45:24.545Z,7.1
2022-11-15T10:46:45.490Z,7.1
2022-11-15T10:47:24.648Z,7.1
2022-11-15T10:48:24.540Z,7
2022-11-15T10:49:24.559Z,7.1
2022-11-15T10:50:24.535Z,7
2022-11-15T10:51:24.555Z,6.9
2022-11-15T10:52:24.561Z,7
2022-11-15T10:53:24.552Z,6.9
2022-11-15T10:54:24.545Z,6.9
2022-11-15T10:55:24.559Z,6.8
2022-11-15T10:56:24.564Z,6.8
2022-11-15T10:57:24.551Z,6.8
2022-11-15T10:59:24.536Z,6.9
2022-11-15T11:00:24.603Z,6.9
2022-11-15T11:01:24.616Z,6.9
2022-11-15T11:02:24.990Z,6.8
2022-11-15T11:03:24.542Z,6.9
2022-11-15T11:04:24.584Z,6.7
2022-11-15T11:05:24.552Z,6.8
2022-11-15T11:06:24.555Z,6.8
2022-11-15T11:07:24.689Z,6.8
2022-11-15T11:08:24.593Z,6.9
2022-11-15T11:09:24.546Z,6.8
2022-11-15T11:11:24.570Z,6.8
2022-11-15T11:12:24.550Z,6.8
2022-11-15T11:13:24.545Z,6.8
2022-11-15T11:14:24.541Z,6.8
2022-11-15T11:15:24.552Z,6.9
2022-11-15T11:16:24.551Z,6.8
2022-11-15T11:17:24.548Z,6.9
2022-11-15T11:18:24.545Z,6.9
2022-11-15T11:19:24.577Z,6.9
2022-11-15T11:20:24.551Z,6.8
2022-11-15T11:21:31.023Z,6.8
2022-11-15T11:22:24.544Z,6.8
2022-11-15T11:23:24.559Z,6.7
2022-11-15T11:24:24.549Z,6.7
2022-11-15T11:25:24.538Z,6.7
2022-11-15T11:26:24.564Z,6.8
2022-11-15T11:27:24.549Z,6.9
2022-11-15T11:28:24.550Z,6.9
2022-11-15T11:29:24.555Z,6.9
2022-11-15T11:30:24.570Z,7
2022-11-15T11:31:24.560Z,6.8
2022-11-15T11:32:24.584Z,6.8
2022-11-15T11:33:24.572Z,6.8
2022-11-15T11:34:24.576Z,6.8
2022-11-15T11:35:24.559Z,6.9
2022-11-15T11:36:24.564Z,7
2022-11-15T11:37:37.529Z,6.8
2022-11-15T11:38:24.562Z,6.9
2022-11-15T11:39:24.560Z,7
2022-11-15T11:40:24.572Z,7
2022-11-15T11:41:24.576Z,6.7
2022-11-15T11:42:24.561Z,6.8
2022-11-15T11:43:24.553Z,6.8
2022-11-15T11:45:24.556Z,6.8
2022-11-15T11:46:24.571Z,6.8
2022-11-15T11:47:24.561Z,6.9
2022-11-15T11:48:24.549Z,6.9
2022-11-15T11:49:24.581Z,6.9
2022-11-15T11:50:24.560Z,6.8
2022-11-15T11:51:24.557Z,6.8
2022-11-15T11:52:24.617Z,6.7
2022-11-15T11:53:24.551Z,6.9
2022-11-15T11:54:24.563Z,6.9
2022-11-15T11:55:24.575Z,6.9
2022-11-15T11:56:24.560Z,6.9
2022-11-15T11:57:24.615Z,7
2022-11-15T11:58:24.556Z,6.9
2022-11-15T11:59:24.611Z,6.9
2022-11-15T12:00:24.555Z,6.9
2022-11-15T12:01:24.562Z,6.8
2022-11-15T12:03:24.584Z,6.9
2022-11-15T12:04:24.586Z,7
2022-11-15T12:05:24.564Z,7
2022-11-15T12:06:24.588Z,7.1
2022-11-15T12:07:24.634Z,7.1
2022-11-15T12:08:24.572Z,7.1
2022-11-15T12:09:24.564Z,7.1
2022-11-15T12:10:24.557Z,7.1
2022-11-15T12:11:24.570Z,7.1
2022-11-15T12:12:24.566Z,7.1
2022-11-15T12:13:24.566Z,7
2022-11-15T12:14:24.777Z,7.1
2022-11-15T12:15:24.570Z,7.1
2022-11-15T12:16:24.568Z,7.1
2022-11-15T12:17:24.546Z,7.2
2022-11-15T12:18:24.664Z,7.1
2022-11-15T12:19:24.581Z,7.2
2022-11-15T12:20:24.557Z,7.2
2022-11-15T12:21:28.486Z,7.1
2022-11-15T12:22:24.568Z,7.2
2022-11-15T12:23:24.568Z,7.2
2022-11-15T12:24:24.571Z,7.2
2022-11-15T12:25:24.558Z,7.2
2022-11-15T12:26:24.578Z,7.2
2022-11-15T12:27:26.767Z,7.2
2022-11-15T12:28:24.563Z,7.3
2022-11-15T12:29:24.551Z,7.2
2022-11-15T12:30:24.558Z,7.2
2022-11-15T12:31:24.564Z,7.1
2022-11-15T12:32:24.572Z,7.2
2022-11-15T12:33:24.559Z,7.2
2022-11-15T12:34:24.589Z,7.3
2022-11-15T12:35:24.568Z,7.3
2022-11-15T12:36:24.562Z,7.3
2022-11-15T12:37:43.499Z,7.3
2022-11-15T12:38:24.558Z,7.3
2022-11-15T12:39:24.559Z,7.3
2022-11-15T12:40:24.557Z,7.2
2022-11-15T12:41:24.612Z,7.3
2022-11-15T12:42:24.564Z,7.2
2022-11-15T12:43:24.550Z,7.2
2022-11-15T12:44:24.560Z,7.2
2022-11-15T12:45:24.585Z,7.2
2022-11-15T12:46:24.555Z,7.2
2022-11-15T12:47:24.566Z,7.1
2022-11-15T12:48:24.562Z,7.2
2022-11-15T12:49:24.568Z,7.2
2022-11-15T12:50:24.559Z,7.3
2022-11-15T12:51:24.561Z,7.2
2022-11-15T12:52:24.608Z,7.3
2022-11-15T12:53:24.556Z,7.2
2022-11-15T12:54:24.582Z,7.2
2022-11-15T12:55:24.568Z,7.2
2022-11-15T12:56:24.582Z,7.2
2022-11-15T12:57:24.565Z,7.2
2022-11-15T12:58:24.567Z,7.1
2022-11-15T12:59:24.570Z,7.2
2022-11-15T13:00:25.516Z,7.2
2022-11-15T13:01:24.643Z,7.3
2022-11-15T13:02:24.557Z,7.3
2022-11-15T13:03:24.592Z,7.3
2022-11-15T13:04:24.570Z,7.2
2022-11-15T13:05:24.591Z,7.3
2022-11-15T13:06:24.585Z,7.3
2022-11-15T13:07:24.612Z,7.3
2022-11-15T13:08:24.590Z,7.2
2022-11-15T13:09:24.576Z,7.2
2022-11-15T13:10:27.770Z,7.2
2022-11-15T13:11:24.576Z,7.3
2022-11-15T13:12:24.563Z,7.3
2022-11-15T13:13:24.564Z,7.3
2022-11-15T13:14:24.583Z,7.2
2022-11-15T13:15:24.579Z,7.3
2022-11-15T13:16:24.581Z,7.3
2022-11-15T13:17:24.554Z,7.3
2022-11-15T13:18:24.561Z,7.3
2022-11-15T13:19:24.660Z,7.3
2022-11-15T13:20:24.596Z,7.3
2022-11-15T13:21:24.574Z,7.2
2022-11-15T13:22:24.582Z,7.2
2022-11-15T13:23:24.795Z,7.2
2022-11-15T13:24:24.564Z,7.2
2022-11-15T13:25:24.570Z,7.2
2022-11-15T13:26:24.568Z,7.2
2022-11-15T13:27:24.577Z,7.2
2022-11-15T13:28:24.575Z,7.2
2022-11-15T13:29:24.558Z,7.3
2022-11-15T13:30:24.565Z,7.3
2022-11-15T13:31:24.584Z,7.2
2022-11-15T13:32:24.566Z,7.2
2022-11-15T13:33:24.551Z,7.2
2022-11-15T13:34:49.981Z,7.3
2022-11-15T13:35:24.619Z,7.3
2022-11-15T13:36:24.625Z,7.2
2022-11-15T13:37:18.650Z,7.2
2022-11-15T13:38:24.566Z,7.3
2022-11-15T13:39:24.564Z,7.3
2022-11-15T13:40:24.571Z,7.2
2022-11-15T13:41:24.584Z,7.2
2022-11-15T13:42:24.585Z,7.2
2022-11-15T13:43:24.567Z,7.3
2022-11-15T13:44:24.569Z,7.3
2022-11-15T13:45:24.601Z,7.3
2022-11-15T13:46:24.585Z,7.3
2022-11-15T13:47:24.578Z,7.3
2022-11-15T13:48:24.561Z,7.3
2022-11-15T13:49:24.581Z,7.3
2022-11-15T13:50:24.574Z,7.3
2022-11-15T13:51:24.581Z,7.3
2022-11-15T13:52:24.593Z,7.3
2022-11-15T13:53:24.571Z,7.3
2022-11-15T13:54:24.621Z,7.3
2022-11-15T13:55:24.580Z,7.3
2022-11-15T13:56:24.579Z,7.3
2022-11-15T13:57:24.574Z,7.3
2022-11-15T13:58:24.597Z,7.3
2022-11-15T13:59:24.615Z,7.3
2022-11-15T14:00:24.568Z,7.3
2022-11-15T14:01:24.719Z,7.3
2022-11-15T14:02:24.585Z,7.3